sensor_id;sensor_type;location;lat;lon;timestamp;P1;durP1;ratioP1;P2;durP2;ratioP2
50631;SDS011;49583;45.590;-122.498;2023-03-01T00:00:15;3.70;;;1.70;;
50631;SDS011;49583;45.590;-122.498;2023-03-01T00:02:48;1.40;;;1.20;;
50631;SDS011;49583;45.590;-122.498;2023-03-01T00:05:02;3.90;;;1.50;;
50631;SDS011;49583;45.590;-122.498;2023-03-01T00:07:17;2.20;;;1.60;;
50631;SDS011;49583;45.590;-122.498;2023-03-01T00:09:29;2.00;;;1.80;;
50631;SDS011;49583;45.590;-122.498;2023-03-01T00:11:42;1.80;;;1.70;;
50631;SDS011;49583;45.590;-122.498;2023-03-01T00:13:56;2.20;;;1.70;;
50631;SDS011;49583;45.590;-122.498;2023-03-01T00:16:13;2.80;;;1.70;;
50631;SDS011;49583;45.590;-122.498;2023-03-01T00:18:27;2.10;;;1.30;;
50631;SDS011;49583;45.590;-122.498;2023-03-01T00:20:39;2.20;;;2.00;;
50631;SDS011;49583;45.590;-122.498;2023-03-01T00:22:58;2.40;;;2.20;;
50631;SDS011;49583;45.590;-122.498;2023-03-01T00:25:11;4.10;;;3.00;;
50631;SDS011;49583;45.590;-122.498;2023-03-01T00:27:24;3.40;;;1.90;;
50631;SDS011;49583;45.590;-122.498;2023-03-01T00:29:38;1.70;;;1.50;;
50631;SDS011;49583;45.590;-122.498;2023-03-01T00:31:51;3.80;;;1.50;;
50631;SDS011;49583;45.590;-122.498;2023-03-01T00:34:05;2.40;;;2.20;;
50631;SDS011;49583;45.590;-122.498;2023-03-01T00:36:19;2.20;;;2.00;;
50631;SDS011;49583;45.590;-122.498;2023-03-01T00:38:36;1.70;;;1.60;;
50631;SDS011;49583;45.590;-122.498;2023-03-01T00:40:49;1.80;;;1.70;;
50631;SDS011;49583;45.590;-122.498;2023-03-01T00:43:02;3.50;;;2.10;;
50631;SDS011;49583;45.590;-122.498;2023-03-01T00:45:18;1.90;;;1.40;;
50631;SDS011;49583;45.590;-122.498;2023-03-01T00:47:33;2.10;;;1.60;;
50631;SDS011;49583;45.590;-122.498;2023-03-01T00:49:46;1.40;;;1.10;;
50631;SDS011;49583;45.590;-122.498;2023-03-01T00:52:02;1.90;;;1.80;;
50631;SDS011;49583;45.590;-122.498;2023-03-01T00:54:15;1.90;;;1.70;;
50631;SDS011;49583;45.590;-122.498;2023-03-01T00:56:28;2.10;;;1.90;;
50631;SDS011;49583;45.590;-122.498;2023-03-01T00:58:42;2.80;;;2.00;;
50631;SDS011;49583;45.590;-122.498;2023-03-01T01:00:56;3.80;;;2.40;;
50631;SDS011;49583;45.590;-122.498;2023-03-01T01:03:09;3.50;;;2.60;;
50631;SDS011;49583;45.590;-122.498;2023-03-01T01:05:23;1.40;;;1.20;;
50631;SDS011;49583;45.590;-122.498;2023-03-01T01:07:36;1.70;;;1.60;;
50631;SDS011;49583;45.590;-122.498;2023-03-01T01:09:49;1.50;;;1.40;;
50631;SDS011;49583;45.590;-122.498;2023-03-01T01:12:02;2.00;;;1.90;;
50631;SDS011;49583;45.590;-122.498;2023-03-01T01:14:15;2.50;;;2.10;;
50631;SDS011;49583;45.590;-122.498;2023-03-01T01:16:28;3.30;;;2.30;;
50631;SDS011;49583;45.590;-122.498;2023-03-01T01:18:41;2.90;;;2.30;;
50631;SDS011;49583;45.590;-122.498;2023-03-01T01:20:55;2.40;;;2.10;;
50631;SDS011;49583;45.590;-122.498;2023-03-01T01:23:07;2.50;;;2.30;;
50631;SDS011;49583;45.590;-122.498;2023-03-01T01:25:21;3.00;;;2.20;;
50631;SDS011;49583;45.590;-122.498;2023-03-01T01:27:34;1.90;;;1.80;;
50631;SDS011;49583;45.590;-122.498;2023-03-01T01:29:47;1.80;;;1.70;;
50631;SDS011;49583;45.590;-122.498;2023-03-01T01:32:03;4.30;;;1.80;;
50631;SDS011;49583;45.590;-122.498;2023-03-01T01:34:16;1.80;;;1.50;;
50631;SDS011;49583;45.590;-122.498;2023-03-01T01:36:32;3.00;;;1.50;;
50631;SDS011;49583;45.590;-122.498;2023-03-01T01:38:45;2.50;;;1.50;;
50631;SDS011;49583;45.590;-122.498;2023-03-01T01:40:59;1.60;;;1.50;;
50631;SDS011;49583;45.590;-122.498;2023-03-01T01:43:15;2.30;;;1.70;;
50631;SDS011;49583;45.590;-122.498;2023-03-01T01:45:32;2.30;;;2.10;;
50631;SDS011;49583;45.590;-122.498;2023-03-01T01:47:46;2.60;;;1.80;;
50631;SDS011;49583;45.590;-122.498;2023-03-01T01:50:00;2.50;;;2.30;;
50631;SDS011;49583;45.590;-122.498;2023-03-01T01:52:18;2.30;;;1.80;;
50631;SDS011;49583;45.590;-122.498;2023-03-01T01:54:37;2.20;;;2.00;;
50631;SDS011;49583;45.590;-122.498;2023-03-01T01:56:55;2.20;;;1.80;;
50631;SDS011;49583;45.590;-122.498;2023-03-01T01:59:10;2.10;;;1.90;;
50631;SDS011;49583;45.590;-122.498;2023-03-01T02:01:24;2.50;;;2.20;;
50631;SDS011;49583;45.590;-122.498;2023-03-01T02:03:37;2.80;;;2.40;;
50631;SDS011;49583;45.590;-122.498;2023-03-01T02:05:53;3.30;;;1.90;;
50631;SDS011;49583;45.590;-122.498;2023-03-01T02:08:13;2.60;;;2.00;;
50631;SDS011;49583;45.590;-122.498;2023-03-01T02:10:28;2.10;;;2.00;;
50631;SDS011;49583;45.590;-122.498;2023-03-01T02:12:43;2.00;;;1.90;;
50631;SDS011;49583;45.590;-122.498;2023-03-01T02:14:57;5.60;;;2.00;;
50631;SDS011;49583;45.590;-122.498;2023-03-01T02:17:10;5.20;;;2.20;;
50631;SDS011;49583;45.590;-122.498;2023-03-01T02:19:30;2.40;;;2.20;;
50631;SDS011;49583;45.590;-122.498;2023-03-01T02:21:57;2.20;;;2.00;;
50631;SDS011;49583;45.590;-122.498;2023-03-01T02:24:22;2.60;;;2.20;;
50631;SDS011;49583;45.590;-122.498;2023-03-01T02:26:42;2.40;;;2.10;;
50631;SDS011;49583;45.590;-122.498;2023-03-01T02:29:01;2.40;;;1.90;;
50631;SDS011;49583;45.590;-122.498;2023-03-01T02:31:16;2.40;;;2.20;;
50631;SDS011;49583;45.590;-122.498;2023-03-01T02:33:47;2.70;;;2.50;;
50631;SDS011;49583;45.590;-122.498;2023-03-01T02:36:02;3.70;;;2.20;;
50631;SDS011;49583;45.590;-122.498;2023-03-01T02:38:19;2.80;;;2.30;;
50631;SDS011;49583;45.590;-122.498;2023-03-01T02:40:34;2.50;;;2.30;;
50631;SDS011;49583;45.590;-122.498;2023-03-01T02:42:51;2.90;;;2.60;;
50631;SDS011;49583;45.590;-122.498;2023-03-01T02:45:07;3.70;;;2.30;;
50631;SDS011;49583;45.590;-122.498;2023-03-01T02:47:22;3.70;;;2.50;;
50631;SDS011;49583;45.590;-122.498;2023-03-01T02:49:36;4.30;;;2.00;;
50631;SDS011;49583;45.590;-122.498;2023-03-01T02:51:52;3.30;;;2.70;;
50631;SDS011;49583;45.590;-122.498;2023-03-01T02:54:18;4.10;;;2.60;;
50631;SDS011;49583;45.590;-122.498;2023-03-01T02:56:39;2.60;;;2.40;;
50631;SDS011;49583;45.590;-122.498;2023-03-01T02:58:56;3.10;;;2.50;;
50631;SDS011;49583;45.590;-122.498;2023-03-01T03:01:11;2.80;;;2.10;;
50631;SDS011;49583;45.590;-122.498;2023-03-01T03:03:24;3.90;;;2.80;;
50631;SDS011;49583;45.590;-122.498;2023-03-01T03:05:38;4.90;;;2.20;;
50631;SDS011;49583;45.590;-122.498;2023-03-01T03:07:51;3.90;;;2.40;;
50631;SDS011;49583;45.590;-122.498;2023-03-01T03:10:06;3.70;;;3.00;;
50631;SDS011;49583;45.590;-122.498;2023-03-01T03:12:21;6.10;;;2.30;;
50631;SDS011;49583;45.590;-122.498;2023-03-01T03:14:34;2.80;;;2.30;;
50631;SDS011;49583;45.590;-122.498;2023-03-01T03:16:48;3.20;;;2.40;;
50631;SDS011;49583;45.590;-122.498;2023-03-01T03:19:01;2.80;;;2.20;;
50631;SDS011;49583;45.590;-122.498;2023-03-01T03:21:14;3.90;;;2.30;;
50631;SDS011;49583;45.590;-122.498;2023-03-01T03:23:28;3.20;;;2.50;;
50631;SDS011;49583;45.590;-122.498;2023-03-01T03:25:41;4.50;;;2.70;;
50631;SDS011;49583;45.590;-122.498;2023-03-01T03:27:55;3.20;;;2.20;;
50631;SDS011;49583;45.590;-122.498;2023-03-01T03:30:09;3.10;;;2.30;;
50631;SDS011;49583;45.590;-122.498;2023-03-01T03:32:23;2.70;;;2.50;;
50631;SDS011;49583;45.590;-122.498;2023-03-01T03:34:36;2.70;;;2.50;;
50631;SDS011;49583;45.590;-122.498;2023-03-01T03:36:50;3.20;;;2.80;;
50631;SDS011;49583;45.590;-122.498;2023-03-01T03:39:06;5.40;;;2.80;;
50631;SDS011;49583;45.590;-122.498;2023-03-01T03:41:20;4.10;;;2.90;;
50631;SDS011;49583;45.590;-122.498;2023-03-01T03:43:36;3.70;;;2.90;;
50631;SDS011;49583;45.590;-122.498;2023-03-01T03:45:51;4.50;;;2.70;;
50631;SDS011;49583;45.590;-122.498;2023-03-01T03:48:05;4.50;;;3.30;;
50631;SDS011;49583;45.590;-122.498;2023-03-01T03:50:19;4.00;;;3.30;;
50631;SDS011;49583;45.590;-122.498;2023-03-01T03:52:31;5.80;;;3.60;;
50631;SDS011;49583;45.590;-122.498;2023-03-01T03:54:44;4.30;;;3.90;;
50631;SDS011;49583;45.590;-122.498;2023-03-01T03:56:58;6.60;;;3.60;;
50631;SDS011;49583;45.590;-122.498;2023-03-01T03:59:11;4.10;;;3.50;;
50631;SDS011;49583;45.590;-122.498;2023-03-01T04:01:24;7.50;;;3.70;;
50631;SDS011;49583;45.590;-122.498;2023-03-01T04:03:37;5.50;;;4.30;;
50631;SDS011;49583;45.590;-122.498;2023-03-01T04:05:54;4.10;;;3.80;;
50631;SDS011;49583;45.590;-122.498;2023-03-01T04:08:09;7.70;;;4.20;;
50631;SDS011;49583;45.590;-122.498;2023-03-01T04:10:24;4.80;;;3.70;;
50631;SDS011;49583;45.590;-122.498;2023-03-01T04:12:38;4.70;;;4.00;;
50631;SDS011;49583;45.590;-122.498;2023-03-01T04:14:51;6.40;;;4.60;;
50631;SDS011;49583;45.590;-122.498;2023-03-01T04:17:04;5.50;;;4.80;;
50631;SDS011;49583;45.590;-122.498;2023-03-01T04:19:16;6.70;;;4.70;;
50631;SDS011;49583;45.590;-122.498;2023-03-01T04:21:29;5.40;;;4.90;;
50631;SDS011;49583;45.590;-122.498;2023-03-01T04:23:43;6.40;;;5.00;;
50631;SDS011;49583;45.590;-122.498;2023-03-01T04:26:00;4.80;;;4.30;;
50631;SDS011;49583;45.590;-122.498;2023-03-01T04:28:14;6.60;;;5.90;;
50631;SDS011;49583;45.590;-122.498;2023-03-01T04:30:26;6.10;;;5.50;;
50631;SDS011;49583;45.590;-122.498;2023-03-01T04:32:43;6.00;;;5.50;;
50631;SDS011;49583;45.590;-122.498;2023-03-01T04:34:56;11.10;;;5.40;;
50631;SDS011;49583;45.590;-122.498;2023-03-01T04:37:09;5.50;;;4.90;;
50631;SDS011;49583;45.590;-122.498;2023-03-01T04:39:24;7.30;;;5.30;;
50631;SDS011;49583;45.590;-122.498;2023-03-01T04:41:37;6.00;;;5.30;;
50631;SDS011;49583;45.590;-122.498;2023-03-01T04:43:51;5.60;;;5.00;;
50631;SDS011;49583;45.590;-122.498;2023-03-01T04:46:04;6.40;;;5.50;;
50631;SDS011;49583;45.590;-122.498;2023-03-01T04:48:21;8.20;;;5.70;;
50631;SDS011;49583;45.590;-122.498;2023-03-01T04:50:34;6.20;;;5.60;;
50631;SDS011;49583;45.590;-122.498;2023-03-01T04:52:47;6.90;;;6.20;;
50631;SDS011;49583;45.590;-122.498;2023-03-01T04:55:01;6.80;;;5.80;;
50631;SDS011;49583;45.590;-122.498;2023-03-01T04:57:16;7.40;;;6.60;;
50631;SDS011;49583;45.590;-122.498;2023-03-01T04:59:30;10.30;;;6.80;;
50631;SDS011;49583;45.590;-122.498;2023-03-01T05:01:43;9.10;;;7.40;;
50631;SDS011;49583;45.590;-122.498;2023-03-01T05:03:56;8.80;;;7.90;;
50631;SDS011;49583;45.590;-122.498;2023-03-01T05:06:11;7.70;;;7.00;;
50631;SDS011;49583;45.590;-122.498;2023-03-01T05:08:25;7.50;;;6.80;;
50631;SDS011;49583;45.590;-122.498;2023-03-01T05:10:38;7.80;;;7.00;;
50631;SDS011;49583;45.590;-122.498;2023-03-01T05:12:51;9.60;;;8.00;;
50631;SDS011;49583;45.590;-122.498;2023-03-01T05:15:05;11.80;;;8.80;;
50631;SDS011;49583;45.590;-122.498;2023-03-01T05:17:19;10.70;;;8.50;;
50631;SDS011;49583;45.590;-122.498;2023-03-01T05:19:34;8.20;;;7.40;;
50631;SDS011;49583;45.590;-122.498;2023-03-01T05:21:50;8.70;;;7.80;;
50631;SDS011;49583;45.590;-122.498;2023-03-01T05:24:13;9.20;;;7.50;;
50631;SDS011;49583;45.590;-122.498;2023-03-01T05:26:26;8.20;;;7.40;;
50631;SDS011;49583;45.590;-122.498;2023-03-01T05:28:39;9.40;;;7.80;;
50631;SDS011;49583;45.590;-122.498;2023-03-01T05:30:52;9.90;;;8.70;;
50631;SDS011;49583;45.590;-122.498;2023-03-01T05:33:05;8.30;;;7.50;;
50631;SDS011;49583;45.590;-122.498;2023-03-01T05:35:20;8.40;;;7.50;;
50631;SDS011;49583;45.590;-122.498;2023-03-01T05:37:34;10.60;;;7.70;;
50631;SDS011;49583;45.590;-122.498;2023-03-01T05:39:47;10.10;;;8.10;;
50631;SDS011;49583;45.590;-122.498;2023-03-01T05:42:00;9.20;;;8.00;;
50631;SDS011;49583;45.590;-122.498;2023-03-01T05:44:16;12.80;;;9.60;;
50631;SDS011;49583;45.590;-122.498;2023-03-01T05:46:29;11.80;;;8.40;;
50631;SDS011;49583;45.590;-122.498;2023-03-01T05:48:41;12.20;;;9.20;;
50631;SDS011;49583;45.590;-122.498;2023-03-01T05:50:57;17.30;;;10.60;;
50631;SDS011;49583;45.590;-122.498;2023-03-01T05:53:12;11.90;;;8.70;;
50631;SDS011;49583;45.590;-122.498;2023-03-01T05:55:26;10.60;;;9.50;;
50631;SDS011;49583;45.590;-122.498;2023-03-01T05:57:40;9.90;;;8.90;;
50631;SDS011;49583;45.590;-122.498;2023-03-01T05:59:52;9.60;;;8.60;;
50631;SDS011;49583;45.590;-122.498;2023-03-01T06:02:05;9.80;;;8.70;;
50631;SDS011;49583;45.590;-122.498;2023-03-01T06:04:18;11.30;;;8.60;;
50631;SDS011;49583;45.590;-122.498;2023-03-01T06:06:32;9.70;;;8.60;;
50631;SDS011;49583;45.590;-122.498;2023-03-01T06:08:46;12.50;;;10.10;;
50631;SDS011;49583;45.590;-122.498;2023-03-01T06:10:59;10.90;;;9.70;;
50631;SDS011;49583;45.590;-122.498;2023-03-01T06:13:13;11.60;;;9.20;;
50631;SDS011;49583;45.590;-122.498;2023-03-01T06:15:28;11.20;;;9.50;;
50631;SDS011;49583;45.590;-122.498;2023-03-01T06:17:42;11.60;;;9.30;;
50631;SDS011;49583;45.590;-122.498;2023-03-01T06:19:56;11.10;;;9.00;;
50631;SDS011;49583;45.590;-122.498;2023-03-01T06:22:09;12.10;;;9.50;;
50631;SDS011;49583;45.590;-122.498;2023-03-01T06:24:23;11.90;;;9.30;;
50631;SDS011;49583;45.590;-122.498;2023-03-01T06:26:36;9.70;;;8.70;;
50631;SDS011;49583;45.590;-122.498;2023-03-01T06:28:51;14.60;;;10.50;;
50631;SDS011;49583;45.590;-122.498;2023-03-01T06:31:04;13.80;;;9.50;;
50631;SDS011;49583;45.590;-122.498;2023-03-01T06:33:18;12.10;;;8.30;;
50631;SDS011;49583;45.590;-122.498;2023-03-01T06:35:32;12.80;;;8.50;;
50631;SDS011;49583;45.590;-122.498;2023-03-01T06:37:48;12.70;;;9.50;;
50631;SDS011;49583;45.590;-122.498;2023-03-01T06:40:01;13.70;;;10.60;;
50631;SDS011;49583;45.590;-122.498;2023-03-01T06:42:16;12.10;;;9.00;;
50631;SDS011;49583;45.590;-122.498;2023-03-01T06:44:30;11.90;;;9.50;;
50631;SDS011;49583;45.590;-122.498;2023-03-01T06:46:43;12.60;;;9.10;;
50631;SDS011;49583;45.590;-122.498;2023-03-01T06:48:56;11.40;;;9.40;;
50631;SDS011;49583;45.590;-122.498;2023-03-01T06:51:10;14.40;;;10.70;;
50631;SDS011;49583;45.590;-122.498;2023-03-01T06:53:22;15.50;;;10.00;;
50631;SDS011;49583;45.590;-122.498;2023-03-01T06:55:36;13.80;;;9.40;;
50631;SDS011;49583;45.590;-122.498;2023-03-01T06:57:50;12.00;;;9.90;;
50631;SDS011;49583;45.590;-122.498;2023-03-01T07:00:09;14.10;;;10.40;;
50631;SDS011;49583;45.590;-122.498;2023-03-01T07:02:23;16.90;;;11.30;;
50631;SDS011;49583;45.590;-122.498;2023-03-01T07:04:36;16.50;;;10.90;;
50631;SDS011;49583;45.590;-122.498;2023-03-01T07:06:49;13.10;;;9.90;;
50631;SDS011;49583;45.590;-122.498;2023-03-01T07:09:02;15.40;;;10.70;;
50631;SDS011;49583;45.590;-122.498;2023-03-01T07:11:15;15.20;;;11.70;;
50631;SDS011;49583;45.590;-122.498;2023-03-01T07:13:28;15.40;;;10.30;;
50631;SDS011;49583;45.590;-122.498;2023-03-01T07:15:42;14.00;;;10.80;;
50631;SDS011;49583;45.590;-122.498;2023-03-01T07:17:55;15.40;;;10.30;;
50631;SDS011;49583;45.590;-122.498;2023-03-01T07:20:10;14.10;;;10.10;;
50631;SDS011;49583;45.590;-122.498;2023-03-01T07:22:23;12.10;;;10.70;;
50631;SDS011;49583;45.590;-122.498;2023-03-01T07:24:37;12.70;;;10.00;;
50631;SDS011;49583;45.590;-122.498;2023-03-01T07:26:50;16.50;;;10.50;;
50631;SDS011;49583;45.590;-122.498;2023-03-01T07:29:04;13.10;;;9.50;;
50631;SDS011;49583;45.590;-122.498;2023-03-01T07:31:19;16.60;;;11.90;;
50631;SDS011;49583;45.590;-122.498;2023-03-01T07:33:35;14.10;;;11.20;;
50631;SDS011;49583;45.590;-122.498;2023-03-01T07:35:49;15.80;;;11.90;;
50631;SDS011;49583;45.590;-122.498;2023-03-01T07:38:09;12.90;;;10.90;;
50631;SDS011;49583;45.590;-122.498;2023-03-01T07:40:22;13.50;;;10.70;;
50631;SDS011;49583;45.590;-122.498;2023-03-01T07:42:36;14.20;;;10.90;;
50631;SDS011;49583;45.590;-122.498;2023-03-01T07:44:49;12.60;;;10.40;;
50631;SDS011;49583;45.590;-122.498;2023-03-01T07:47:02;13.90;;;10.20;;
50631;SDS011;49583;45.590;-122.498;2023-03-01T07:49:15;15.60;;;10.70;;
50631;SDS011;49583;45.590;-122.498;2023-03-01T07:51:28;11.40;;;10.20;;
50631;SDS011;49583;45.590;-122.498;2023-03-01T07:53:41;12.70;;;9.40;;
50631;SDS011;49583;45.590;-122.498;2023-03-01T07:56:02;12.50;;;9.90;;
50631;SDS011;49583;45.590;-122.498;2023-03-01T07:58:16;11.40;;;9.60;;
50631;SDS011;49583;45.590;-122.498;2023-03-01T08:00:30;15.10;;;9.70;;
50631;SDS011;49583;45.590;-122.498;2023-03-01T08:02:42;11.90;;;9.60;;
50631;SDS011;49583;45.590;-122.498;2023-03-01T08:04:55;12.20;;;9.40;;
50631;SDS011;49583;45.590;-122.498;2023-03-01T08:07:08;11.20;;;9.50;;
50631;SDS011;49583;45.590;-122.498;2023-03-01T08:09:21;11.60;;;9.10;;
50631;SDS011;49583;45.590;-122.498;2023-03-01T08:11:35;12.10;;;9.70;;
50631;SDS011;49583;45.590;-122.498;2023-03-01T08:13:49;13.80;;;9.70;;
50631;SDS011;49583;45.590;-122.498;2023-03-01T08:16:03;14.50;;;10.70;;
50631;SDS011;49583;45.590;-122.498;2023-03-01T08:18:17;12.40;;;9.50;;
50631;SDS011;49583;45.590;-122.498;2023-03-01T08:20:31;15.50;;;9.30;;
50631;SDS011;49583;45.590;-122.498;2023-03-01T08:22:44;13.10;;;9.50;;
50631;SDS011;49583;45.590;-122.498;2023-03-01T08:24:56;10.60;;;9.40;;
50631;SDS011;49583;45.590;-122.498;2023-03-01T08:27:09;11.70;;;9.90;;
50631;SDS011;49583;45.590;-122.498;2023-03-01T08:29:22;14.50;;;10.60;;
50631;SDS011;49583;45.590;-122.498;2023-03-01T08:31:35;13.00;;;10.40;;
50631;SDS011;49583;45.590;-122.498;2023-03-01T08:33:50;14.70;;;10.30;;
50631;SDS011;49583;45.590;-122.498;2023-03-01T08:36:05;12.40;;;10.30;;
50631;SDS011;49583;45.590;-122.498;2023-03-01T08:38:20;13.40;;;10.00;;
50631;SDS011;49583;45.590;-122.498;2023-03-01T08:40:33;14.30;;;9.70;;
50631;SDS011;49583;45.590;-122.498;2023-03-01T08:42:46;14.00;;;10.00;;
50631;SDS011;49583;45.590;-122.498;2023-03-01T08:44:59;15.70;;;10.90;;
50631;SDS011;49583;45.590;-122.498;2023-03-01T08:47:12;16.70;;;11.10;;
50631;SDS011;49583;45.590;-122.498;2023-03-01T08:49:26;13.60;;;10.60;;
50631;SDS011;49583;45.590;-122.498;2023-03-01T08:51:40;14.60;;;11.10;;
50631;SDS011;49583;45.590;-122.498;2023-03-01T08:53:53;15.90;;;10.90;;
50631;SDS011;49583;45.590;-122.498;2023-03-01T08:56:07;14.60;;;10.00;;
50631;SDS011;49583;45.590;-122.498;2023-03-01T08:58:20;15.80;;;11.60;;
50631;SDS011;49583;45.590;-122.498;2023-03-01T09:00:33;16.70;;;11.70;;
50631;SDS011;49583;45.590;-122.498;2023-03-01T09:02:47;15.10;;;10.80;;
50631;SDS011;49583;45.590;-122.498;2023-03-01T09:05:01;17.40;;;12.10;;
50631;SDS011;49583;45.590;-122.498;2023-03-01T09:07:15;14.40;;;10.90;;
50631;SDS011;49583;45.590;-122.498;2023-03-01T09:09:27;14.50;;;10.90;;
50631;SDS011;49583;45.590;-122.498;2023-03-01T09:11:40;14.80;;;11.00;;
50631;SDS011;49583;45.590;-122.498;2023-03-01T09:13:55;16.10;;;11.20;;
50631;SDS011;49583;45.590;-122.498;2023-03-01T09:16:09;11.30;;;10.10;;
50631;SDS011;49583;45.590;-122.498;2023-03-01T09:18:24;14.90;;;10.60;;
50631;SDS011;49583;45.590;-122.498;2023-03-01T09:20:38;14.30;;;10.20;;
50631;SDS011;49583;45.590;-122.498;2023-03-01T09:22:52;13.40;;;9.60;;
50631;SDS011;49583;45.590;-122.498;2023-03-01T09:25:06;13.20;;;10.40;;
50631;SDS011;49583;45.590;-122.498;2023-03-01T09:27:19;16.80;;;10.50;;
50631;SDS011;49583;45.590;-122.498;2023-03-01T09:29:32;14.50;;;9.40;;
50631;SDS011;49583;45.590;-122.498;2023-03-01T09:31:45;13.40;;;9.40;;
50631;SDS011;49583;45.590;-122.498;2023-03-01T09:33:59;15.70;;;10.40;;
50631;SDS011;49583;45.590;-122.498;2023-03-01T09:36:13;15.50;;;10.80;;
50631;SDS011;49583;45.590;-122.498;2023-03-01T09:38:27;16.70;;;10.80;;
50631;SDS011;49583;45.590;-122.498;2023-03-01T09:40:43;14.00;;;10.20;;
50631;SDS011;49583;45.590;-122.498;2023-03-01T09:42:58;14.80;;;10.30;;
50631;SDS011;49583;45.590;-122.498;2023-03-01T09:45:19;16.00;;;11.50;;
50631;SDS011;49583;45.590;-122.498;2023-03-01T09:47:40;15.20;;;10.60;;
50631;SDS011;49583;45.590;-122.498;2023-03-01T09:49:56;15.50;;;11.00;;
50631;SDS011;49583;45.590;-122.498;2023-03-01T09:52:23;15.90;;;10.90;;
50631;SDS011;49583;45.590;-122.498;2023-03-01T09:54:40;17.40;;;10.80;;
50631;SDS011;49583;45.590;-122.498;2023-03-01T09:57:01;12.80;;;10.60;;
50631;SDS011;49583;45.590;-122.498;2023-03-01T09:59:23;12.70;;;10.00;;
50631;SDS011;49583;45.590;-122.498;2023-03-01T10:01:43;14.10;;;10.20;;
50631;SDS011;49583;45.590;-122.498;2023-03-01T10:04:09;13.90;;;9.90;;
50631;SDS011;49583;45.590;-122.498;2023-03-01T10:06:32;12.30;;;10.40;;
50631;SDS011;49583;45.590;-122.498;2023-03-01T10:08:46;11.50;;;10.00;;
50631;SDS011;49583;45.590;-122.498;2023-03-01T10:11:04;18.40;;;10.90;;
50631;SDS011;49583;45.590;-122.498;2023-03-01T10:13:29;13.90;;;9.80;;
50631;SDS011;49583;45.590;-122.498;2023-03-01T10:15:54;14.00;;;10.90;;
50631;SDS011;49583;45.590;-122.498;2023-03-01T10:18:12;16.10;;;10.70;;
50631;SDS011;49583;45.590;-122.498;2023-03-01T10:20:33;17.60;;;11.60;;
50631;SDS011;49583;45.590;-122.498;2023-03-01T10:22:52;13.20;;;10.80;;
50631;SDS011;49583;45.590;-122.498;2023-03-01T10:25:08;16.40;;;12.90;;
50631;SDS011;49583;45.590;-122.498;2023-03-01T10:27:29;17.10;;;12.00;;
50631;SDS011;49583;45.590;-122.498;2023-03-01T10:29:51;15.60;;;10.90;;
50631;SDS011;49583;45.590;-122.498;2023-03-01T10:32:13;17.30;;;11.10;;
50631;SDS011;49583;45.590;-122.498;2023-03-01T10:34:32;14.30;;;11.30;;
50631;SDS011;49583;45.590;-122.498;2023-03-01T10:36:47;14.00;;;10.50;;
50631;SDS011;49583;45.590;-122.498;2023-03-01T10:39:02;16.60;;;12.10;;
50631;SDS011;49583;45.590;-122.498;2023-03-01T10:41:26;13.40;;;11.10;;
50631;SDS011;49583;45.590;-122.498;2023-03-01T10:43:43;14.20;;;10.90;;
50631;SDS011;49583;45.590;-122.498;2023-03-01T10:45:58;16.10;;;10.60;;
50631;SDS011;49583;45.590;-122.498;2023-03-01T10:48:13;13.40;;;11.00;;
50631;SDS011;49583;45.590;-122.498;2023-03-01T10:50:28;15.60;;;11.50;;
50631;SDS011;49583;45.590;-122.498;2023-03-01T10:52:41;15.50;;;11.60;;
50631;SDS011;49583;45.590;-122.498;2023-03-01T10:55:23;15.70;;;12.00;;
50631;SDS011;49583;45.590;-122.498;2023-03-01T10:57:40;14.90;;;11.60;;
50631;SDS011;49583;45.590;-122.498;2023-03-01T10:59:57;17.50;;;12.20;;
50631;SDS011;49583;45.590;-122.498;2023-03-01T11:02:25;14.00;;;11.20;;
50631;SDS011;49583;45.590;-122.498;2023-03-01T11:04:54;14.70;;;11.20;;
50631;SDS011;49583;45.590;-122.498;2023-03-01T11:07:09;16.70;;;11.90;;
50631;SDS011;49583;45.590;-122.498;2023-03-01T11:09:24;15.30;;;10.70;;
50631;SDS011;49583;45.590;-122.498;2023-03-01T11:11:45;16.10;;;11.20;;
50631;SDS011;49583;45.590;-122.498;2023-03-01T11:14:03;17.50;;;12.00;;
50631;SDS011;49583;45.590;-122.498;2023-03-01T11:16:35;16.90;;;11.30;;
50631;SDS011;49583;45.590;-122.498;2023-03-01T11:18:58;17.10;;;11.20;;
50631;SDS011;49583;45.590;-122.498;2023-03-01T11:21:23;17.50;;;12.60;;
50631;SDS011;49583;45.590;-122.498;2023-03-01T11:23:39;16.70;;;11.90;;
50631;SDS011;49583;45.590;-122.498;2023-03-01T11:25:57;17.10;;;11.70;;
50631;SDS011;49583;45.590;-122.498;2023-03-01T11:28:17;18.10;;;12.60;;
50631;SDS011;49583;45.590;-122.498;2023-03-01T11:30:34;16.90;;;12.70;;
50631;SDS011;49583;45.590;-122.498;2023-03-01T11:32:50;17.80;;;12.00;;
50631;SDS011;49583;45.590;-122.498;2023-03-01T11:35:13;17.30;;;12.40;;
50631;SDS011;49583;45.590;-122.498;2023-03-01T11:37:35;22.20;;;14.10;;
50631;SDS011;49583;45.590;-122.498;2023-03-01T11:39:56;16.80;;;12.50;;
50631;SDS011;49583;45.590;-122.498;2023-03-01T11:42:17;17.50;;;12.60;;
50631;SDS011;49583;45.590;-122.498;2023-03-01T11:44:37;22.50;;;12.90;;
50631;SDS011;49583;45.590;-122.498;2023-03-01T11:49:38;19.00;;;12.50;;
50631;SDS011;49583;45.590;-122.498;2023-03-01T11:52:05;20.90;;;14.60;;
50631;SDS011;49583;45.590;-122.498;2023-03-01T11:54:30;25.30;;;14.50;;
50631;SDS011;49583;45.590;-122.498;2023-03-01T11:56:57;21.30;;;12.50;;
50631;SDS011;49583;45.590;-122.498;2023-03-01T11:59:22;20.80;;;13.20;;
50631;SDS011;49583;45.590;-122.498;2023-03-01T12:01:52;19.40;;;13.50;;
50631;SDS011;49583;45.590;-122.498;2023-03-01T12:07:23;18.80;;;13.60;;
50631;SDS011;49583;45.590;-122.498;2023-03-01T12:14:58;20.10;;;12.70;;
50631;SDS011;49583;45.590;-122.498;2023-03-01T12:17:28;21.10;;;13.20;;
50631;SDS011;49583;45.590;-122.498;2023-03-01T12:19:56;22.30;;;13.70;;
50631;SDS011;49583;45.590;-122.498;2023-03-01T12:22:24;20.20;;;13.90;;
50631;SDS011;49583;45.590;-122.498;2023-03-01T12:24:48;20.40;;;13.40;;
50631;SDS011;49583;45.590;-122.498;2023-03-01T12:27:24;22.00;;;13.70;;
50631;SDS011;49583;45.590;-122.498;2023-03-01T12:29:50;20.10;;;13.00;;
50631;SDS011;49583;45.590;-122.498;2023-03-01T12:32:18;21.90;;;14.50;;
50631;SDS011;49583;45.590;-122.498;2023-03-01T12:34:42;24.90;;;14.20;;
50631;SDS011;49583;45.590;-122.498;2023-03-01T12:37:19;28.10;;;14.60;;
50631;SDS011;49583;45.590;-122.498;2023-03-01T12:39:38;24.40;;;15.70;;
50631;SDS011;49583;45.590;-122.498;2023-03-01T12:42:01;23.00;;;13.60;;
50631;SDS011;49583;45.590;-122.498;2023-03-01T12:44:28;21.60;;;13.90;;
50631;SDS011;49583;45.590;-122.498;2023-03-01T12:46:55;19.30;;;13.20;;
50631;SDS011;49583;45.590;-122.498;2023-03-01T12:49:17;22.00;;;14.40;;
50631;SDS011;49583;45.590;-122.498;2023-03-01T12:51:35;23.00;;;14.10;;
50631;SDS011;49583;45.590;-122.498;2023-03-01T12:53:50;24.40;;;14.50;;
50631;SDS011;49583;45.590;-122.498;2023-03-01T12:56:07;26.60;;;14.80;;
50631;SDS011;49583;45.590;-122.498;2023-03-01T12:58:24;26.40;;;15.20;;
50631;SDS011;49583;45.590;-122.498;2023-03-01T13:01:04;23.20;;;15.00;;
50631;SDS011;49583;45.590;-122.498;2023-03-01T13:03:26;23.00;;;13.80;;